Stations météo

réclame
Mon MeteoGroup
Reinosa, Espagne (8032): Température de l'air & dewpoint: 19.02.2018 18:00:00 - 25.02.2018 18:00:00 (CET)Reinosa, Espagne (8032): Vitesse du vent & gusts: 19.02.2018 18:00:00 - 25.02.2018 18:00:00 (CET)Reinosa, Espagne (8032): Direction du vent: 19.02.2018 18:00:00 - 25.02.2018 18:00:00 (CET)Reinosa, Espagne (8032): Quantités de précipitations: 19.02.2018 18:00:00 - 25.02.2018 18:00:00 (CET)
Date & Time tt [°C] td [°C] ff [km/h] ff [knt] fx [km/h] fx [knt] dd rr [mm]
25.02.2018 18:00:00 - - - - - - - -
25.02.2018 17:00:00 - - - - - - - -
25.02.2018 16:00:00 - - 0 0 0 0 N 0,0
25.02.2018 15:00:00 - - 0 0 0 0 N 0,0
25.02.2018 14:00:00 - - 1 1 23 12 ENE 0,0
25.02.2018 13:00:00 10,3 -7,8 3 1 11 6 NE -
25.02.2018 12:00:00 9,0 -5,4 4 2 10 5 NE 0,0
25.02.2018 11:00:00 6,3 -5,7 3 2 7 4 ENE 0,0
25.02.2018 10:00:00 3,5 -7,5 2 1 12 7 SE 0,0
25.02.2018 09:00:00 -1,1 -6,0 5 3 9 5 S 0,0
25.02.2018 08:00:00 -4,7 -6,4 4 2 6 4 SW 0,0
25.02.2018 07:00:00 -5,2 -7,1 2 1 5 3 NE -
25.02.2018 06:00:00 -4,9 -7,1 5 3 6 4 WSW 0,0
25.02.2018 05:00:00 -5,2 -7,1 3 2 4 2 W 0,0
25.02.2018 04:00:00 -4,9 -7,1 2 1 5 3 NW 0,0
25.02.2018 03:00:00 -4,3 -6,4 0 0 5 3 S 0,0
25.02.2018 02:00:00 -3,7 -6,4 3 2 9 5 S 0,0
25.02.2018 01:00:00 -4,0 -6,0 4 2 5 3 NW -
25.02.2018 00:00:00 -3,1 -5,4 3 2 7 4 SSW 0,0
24.02.2018 23:00:00 - - 1 1 4 2 W 0,0
24.02.2018 22:00:00 - - 0 0 0 0 N 0,0
24.02.2018 21:00:00 - - 0 0 0 0 N 0,0
24.02.2018 20:00:00 - - 0 0 0 0 N 0,0
24.02.2018 19:00:00 - - 0 0 0 0 N -
24.02.2018 18:00:00 - - 0 0 0 0 N 0,0
24.02.2018 17:00:00 - - 0 0 0 0 N 0,0
24.02.2018 16:00:00 - - 0 0 0 0 N 0,0
24.02.2018 15:00:00 - - 0 0 0 0 N 0,0
24.02.2018 14:00:00 - - 1 1 13 7 ENE 0,0
24.02.2018 13:00:00 4,2 -3,6 3 2 14 8 NE -
24.02.2018 12:00:00 2,6 -2,2 7 4 13 7 ENE 0,0
24.02.2018 11:00:00 0,6 -3,3 7 4 10 6 E 0,0
24.02.2018 10:00:00 -1,0 -4,2 2 1 7 4 NE 0,0
24.02.2018 09:00:00 -3,4 -5,4 5 3 6 4 E 0,0
24.02.2018 08:00:00 -5,7 -6,4 1 1 6 3 W 0,0
24.02.2018 07:00:00 -6,4 -7,1 4 2 6 3 NNE -
24.02.2018 06:00:00 -6,6 -7,5 3 2 4 2 S 0,0
24.02.2018 05:00:00 -6,3 -7,1 2 1 5 3 ENE 0,0
24.02.2018 04:00:00 -5,7 -6,4 3 2 5 3 S 0,0
24.02.2018 03:00:00 -5,2 -6,4 2 1 5 3 WNW 0,0
24.02.2018 02:00:00 -4,7 -6,0 3 2 8 4 SSE 0,0
24.02.2018 01:00:00 -4,1 -5,1 4 2 6 3 W -
24.02.2018 00:00:00 -3,3 -4,2 4 2 5 3 W 0,0
23.02.2018 23:00:00 - - 0 0 0 0 N 0,0
23.02.2018 22:00:00 - - 0 0 0 0 N 0,0
23.02.2018 21:00:00 - - 0 0 0 0 N 0,0
23.02.2018 20:00:00 - - 0 0 0 0 N 0,0
23.02.2018 19:00:00 - - 0 0 0 0 N -
23.02.2018 18:00:00 - - 0 0 0 0 N 0,0
23.02.2018 17:00:00 - - 0 0 0 0 N 0,0
23.02.2018 16:00:00 - - 0 0 0 0 N 0,0
23.02.2018 15:00:00 - - 0 0 0 0 N 0,0
23.02.2018 14:00:00 - - 1 1 17 9 ENE 0,0
23.02.2018 13:00:00 3,3 -7,1 9 5 16 8 ENE -
23.02.2018 12:00:00 2,8 -6,7 8 4 15 8 NE 0,0
23.02.2018 11:00:00 1,5 -6,7 5 3 12 6 E 0,0
23.02.2018 10:00:00 0,8 -7,1 3 2 6 4 SE 0,0
23.02.2018 09:00:00 -2,1 -8,2 2 1 10 5 SW 0,0
23.02.2018 08:00:00 -5,0 -9,0 4 2 9 5 S 0,0
23.02.2018 07:00:00 -5,0 -9,0 1 1 9 5 WNW -
23.02.2018 06:00:00 -5,2 -9,9 2 1 13 7 S 0,0
23.02.2018 05:00:00 -4,3 -9,0 4 2 9 5 NW 0,0
23.02.2018 04:00:00 -4,0 -8,2 10 5 15 8 WNW 0,0
23.02.2018 03:00:00 -4,7 -7,5 3 1 8 5 WNW 0,0
23.02.2018 02:00:00 -4,4 -6,4 7 4 9 5 W 0,0
23.02.2018 01:00:00 -4,3 -6,0 3 2 6 3 W -
23.02.2018 00:00:00 -4,0 -5,4 2 1 5 3 W 0,0
22.02.2018 23:00:00 -3,3 -5,1 1 1 5 3 S 0,0
22.02.2018 22:00:00 -2,5 -4,8 3 2 5 3 SSW 0,0
22.02.2018 21:00:00 - - 0 0 0 0 N 0,0
22.02.2018 20:00:00 - - 0 0 0 0 N 0,0
22.02.2018 19:00:00 - - 0 0 0 0 N -
22.02.2018 18:00:00 - - 0 0 0 0 N 0,0
22.02.2018 17:00:00 - - 0 0 27 15 N 0,0
22.02.2018 16:00:00 2,8 -3,9 14 8 25 13 NNW 0,0
22.02.2018 15:00:00 3,1 -4,2 13 7 22 12 N 0,0
22.02.2018 14:00:00 2,5 -4,5 16 8 26 14 NE 0,0
22.02.2018 13:00:00 2,8 -3,9 9 5 27 15 N -
22.02.2018 12:00:00 2,6 -3,0 12 7 29 16 N 0,0
22.02.2018 11:00:00 1,3 -3,0 18 10 29 15 NNW 0,0
22.02.2018 10:00:00 0,7 -3,0 18 10 26 14 NNW 0,0
22.02.2018 09:00:00 -0,1 -3,3 18 10 26 14 NW 0,0
22.02.2018 08:00:00 -0,2 -3,6 17 9 27 14 NNW 0,0
22.02.2018 07:00:00 -0,3 -4,2 16 9 21 12 NNW -
22.02.2018 06:00:00 -0,5 -4,2 17 9 28 15 NW 0,0
22.02.2018 05:00:00 -0,2 -4,2 19 10 26 14 NW 0,0
22.02.2018 04:00:00 -0,3 -3,9 16 9 24 13 NW 0,0
22.02.2018 03:00:00 -0,7 -4,2 21 12 27 15 NW 0,0
22.02.2018 02:00:00 -0,4 -4,2 13 7 27 14 N 0,0
22.02.2018 01:00:00 -0,2 -3,9 16 9 29 15 N -
22.02.2018 00:00:00 -0,4 -3,6 17 9 31 17 NW 0,0
21.02.2018 23:00:00 -0,4 -3,6 21 11 34 18 NW 0,0
21.02.2018 22:00:00 -0,2 -3,9 21 12 40 22 NNW 0,0
21.02.2018 21:00:00 -0,9 -4,5 31 17 40 22 NNW 0,0
21.02.2018 20:00:00 -0,7 -3,9 32 17 42 23 NNW 0,0
21.02.2018 19:00:00 0,0 -2,5 22 12 32 18 N -
21.02.2018 18:00:00 0,2 -2,2 9 5 29 15 NNE 0,1
21.02.2018 17:00:00 0,3 -0,5 10 6 37 20 NNE 0,3
21.02.2018 16:00:00 0,9 -0,3 16 9 31 17 NNE 0,1
21.02.2018 15:00:00 1,5 0,2 9 5 39 21 NNE 0,3
21.02.2018 14:00:00 1,6 0,2 13 7 37 20 N 0,0
21.02.2018 13:00:00 1,5 0,0 19 10 40 21 N -
21.02.2018 12:00:00 1,8 0,6 16 9 45 24 N 0,1
21.02.2018 11:00:00 1,1 -0,3 11 6 36 20 N 0,5
21.02.2018 10:00:00 1,3 0,0 17 9 44 24 N 0,3
21.02.2018 09:00:00 0,8 -0,5 20 11 47 25 NNW 0,2
21.02.2018 08:00:00 0,5 -1,7 29 15 51 28 NNW 0,0
21.02.2018 07:00:00 1,0 -1,2 23 13 52 28 N -
21.02.2018 06:00:00 1,4 -1,0 24 13 50 27 N 0,0
21.02.2018 05:00:00 1,2 0,0 22 12 55 30 N 0,4
21.02.2018 04:00:00 1,5 0,0 31 17 58 32 NNW 0,7
21.02.2018 03:00:00 2,2 0,6 40 22 63 34 NNW 0,4
21.02.2018 02:00:00 2,9 1,5 28 15 49 26 NNW 0,0
21.02.2018 01:00:00 3,5 2,1 23 12 44 24 NNW -
21.02.2018 00:00:00 3,6 1,9 24 13 37 20 NW 0,1
20.02.2018 23:00:00 4,3 2,5 16 9 34 18 NNW 0,1
20.02.2018 22:00:00 4,5 2,5 11 6 27 15 NNW 0,0
20.02.2018 21:00:00 4,2 2,5 13 7 37 20 NNW 0,3
20.02.2018 20:00:00 4,5 3,0 16 9 34 18 NNW 0,2
20.02.2018 19:00:00 4,3 3,0 24 13 44 24 NNW -
20.02.2018 18:00:00 4,8 3,2 16 9 40 21 NNW 0,4
20.02.2018 17:00:00 4,3 2,7 16 9 41 22 NNW 0,1
20.02.2018 16:00:00 5,0 3,4 18 10 46 25 NNW 0,1
20.02.2018 15:00:00 4,8 3,2 29 16 46 25 NW 0,0
20.02.2018 14:00:00 5,1 3,8 26 14 41 22 NW 0,0
20.02.2018 13:00:00 4,4 1,7 23 12 42 23 NW -
20.02.2018 12:00:00 4,8 2,1 20 11 45 24 NW 0,1
20.02.2018 11:00:00 3,8 2,3 22 12 38 21 NW 0,5
20.02.2018 10:00:00 3,8 2,3 18 10 39 21 NW 0,1
20.02.2018 09:00:00 3,8 2,5 20 11 37 20 NW 0,1
20.02.2018 08:00:00 3,8 2,5 20 11 38 20 NW 0,2
20.02.2018 07:00:00 3,5 2,1 23 12 38 20 NW -
20.02.2018 06:00:00 3,9 2,5 20 11 34 19 NW 0,3
20.02.2018 05:00:00 4,4 3,0 21 11 34 18 NNW 0,2
20.02.2018 04:00:00 4,1 3,0 20 11 41 22 NW 0,1
20.02.2018 03:00:00 4,6 3,4 26 14 42 23 NW 0,2
20.02.2018 02:00:00 4,6 3,4 17 9 43 23 NW 0,2
20.02.2018 01:00:00 4,8 3,8 22 12 31 17 NW -
20.02.2018 00:00:00 4,8 3,8 21 11 36 20 WNW 0,0
19.02.2018 23:00:00 4,7 3,6 22 12 50 27 NW 0,0
19.02.2018 22:00:00 4,8 3,4 25 14 42 23 NW 0,2
19.02.2018 21:00:00 4,9 3,6 22 12 38 20 NW 0,2
19.02.2018 20:00:00 4,8 3,4 23 13 41 22 NW 0,2
19.02.2018 19:00:00 5,2 3,8 17 9 30 16 NW -
19.02.2018 18:00:00 5,4 4,1 14 8 31 17 NW 0,0

tt = Température de l'air
td = dewpoint
ff = Vitesse du vent
fx = gusts
dd = Direction du vent
rr = Quantités de précipitations

stations d'obs. à proximité